createdAt,value
2022-09-28T00:01:09.250Z,100.00
2022-09-28T00:03:38.395Z,100.00
2022-09-28T00:06:07.191Z,100.00
2022-09-28T00:08:35.135Z,100.00
2022-09-28T00:11:03.028Z,100.00
2022-09-28T00:13:31.603Z,100.00
2022-09-28T00:16:02.918Z,100.00
2022-09-28T00:18:30.605Z,100.00
2022-09-28T00:21:03.404Z,100.00
2022-09-28T00:23:30.934Z,100.00
2022-09-28T00:26:02.715Z,100.00
2022-09-28T00:28:31.320Z,100.00
2022-09-28T00:30:58.832Z,100.00
2022-09-28T00:33:26.552Z,100.00
2022-09-28T00:35:57.501Z,100.00
2022-09-28T00:38:29.102Z,100.00
2022-09-28T00:40:56.772Z,100.00
2022-09-28T00:43:24.513Z,100.00
2022-09-28T00:45:56.327Z,100.00
2022-09-28T00:48:24.158Z,100.00
2022-09-28T00:50:51.604Z,100.00
2022-09-28T00:53:21.625Z,100.00
2022-09-28T00:55:53.036Z,100.00
2022-09-28T00:58:22.263Z,100.00
2022-09-28T01:00:50.014Z,100.00
2022-09-28T01:03:17.794Z,100.00
2022-09-28T01:05:45.791Z,100.00
2022-09-28T01:08:14.181Z,100.00
2022-09-28T01:10:43.756Z,100.00
2022-09-28T01:13:13.152Z,100.00
2022-09-28T01:15:44.349Z,100.00
2022-09-28T01:18:14.187Z,100.00
2022-09-28T01:20:55.770Z,100.00
2022-09-28T01:23:38.069Z,100.00
2022-09-28T01:26:27.164Z,100.00
2022-09-28T01:29:00.498Z,100.00
2022-09-28T01:31:30.738Z,100.00
2022-09-28T01:34:01.256Z,100.00
2022-09-28T01:36:31.144Z,100.00
2022-09-28T01:39:00.999Z,100.00
2022-09-28T01:41:30.429Z,100.00
2022-09-28T01:44:02.800Z,100.00
2022-09-28T01:46:33.770Z,100.00
2022-09-28T01:49:04.558Z,100.00
2022-09-28T01:51:35.491Z,100.00
2022-09-28T01:54:08.286Z,100.00
2022-09-28T01:56:39.059Z,100.00
2022-09-28T01:59:09.261Z,100.00
2022-09-28T02:01:39.159Z,100.00
2022-09-28T02:04:09.740Z,100.00
2022-09-28T02:06:38.865Z,100.00
2022-09-28T02:09:10.021Z,100.00
2022-09-28T02:11:41.438Z,100.00
2022-09-28T02:14:10.038Z,100.00
2022-09-28T02:16:40.346Z,100.00
2022-09-28T02:19:09.133Z,100.00
2022-09-28T02:21:41.806Z,100.00
2022-09-28T02:24:13.011Z,100.00
2022-09-28T02:26:43.587Z,100.00
2022-09-28T02:29:11.325Z,100.00
2022-09-28T02:31:38.978Z,100.00
2022-09-28T02:34:06.567Z,100.00
2022-09-28T02:36:34.575Z,100.00
2022-09-28T02:39:02.794Z,100.00
2022-09-28T02:41:43.644Z,100.00
2022-09-28T02:44:19.409Z,100.00
2022-09-28T02:46:50.516Z,100.00
2022-09-28T02:49:22.392Z,100.00
2022-09-28T02:51:56.996Z,100.00
2022-09-28T02:54:48.079Z,100.00
2022-09-28T02:57:24.902Z,100.00
2022-09-28T03:00:03.048Z,100.00
2022-09-28T03:02:33.094Z,100.00
2022-09-28T03:05:09.783Z,100.00
2022-09-28T03:07:37.968Z,100.00
2022-09-28T03:10:09.525Z,100.00
2022-09-28T03:12:38.366Z,100.00
2022-09-28T03:15:13.564Z,100.00
2022-09-28T03:17:41.061Z,100.00
2022-09-28T03:20:11.023Z,100.00
2022-09-28T03:22:40.629Z,100.00
2022-09-28T03:25:10.597Z,100.00
2022-09-28T03:27:38.075Z,100.00
2022-09-28T03:30:06.028Z,100.00
2022-09-28T03:32:34.818Z,100.00
2022-09-28T03:35:02.299Z,100.00
2022-09-28T03:37:30.021Z,100.00
2022-09-28T03:39:57.446Z,100.00
2022-09-28T03:42:24.931Z,100.00
2022-09-28T03:44:52.464Z,100.00
2022-09-28T03:47:20.036Z,100.00
2022-09-28T03:49:48.947Z,100.00
2022-09-28T03:52:16.420Z,100.00
2022-09-28T03:54:48.330Z,100.00
2022-09-28T03:57:16.580Z,100.00
2022-09-28T03:59:44.030Z,100.00
2022-09-28T04:02:11.514Z,100.00
2022-09-28T04:04:39.105Z,100.00
2022-09-28T04:07:07.851Z,100.00
2022-09-28T04:09:35.247Z,100.00
2022-09-28T04:12:04.485Z,100.00
2022-09-28T04:14:32.122Z,100.00
2022-09-28T04:16:59.546Z,100.00
2022-09-28T04:19:27.431Z,100.00
2022-09-28T04:21:54.814Z,100.00
2022-09-28T04:24:23.558Z,100.00
2022-09-28T04:26:50.947Z,100.00
2022-09-28T04:29:17.494Z,100.00
2022-09-28T04:31:47.538Z,100.00
2022-09-28T04:34:17.239Z,100.00
2022-09-28T04:36:44.872Z,100.00
2022-09-28T04:39:12.434Z,100.00
2022-09-28T04:41:41.223Z,100.00
2022-09-28T04:44:09.126Z,100.00
2022-09-28T04:46:36.792Z,100.00
2022-09-28T04:49:04.312Z,100.00
2022-09-28T04:51:31.791Z,100.00
2022-09-28T04:53:59.223Z,100.00
2022-09-28T04:56:26.616Z,100.00
2022-09-28T04:58:55.371Z,100.00
2022-09-28T05:01:24.169Z,100.00
2022-09-28T05:03:51.824Z,100.00
2022-09-28T05:06:19.273Z,100.00
2022-09-28T05:08:47.195Z,100.00
2022-09-28T05:11:15.247Z,100.00
2022-09-28T05:13:43.706Z,100.00
2022-09-28T05:16:13.243Z,100.00
2022-09-28T05:18:40.698Z,100.00
2022-09-28T05:21:10.600Z,100.00
2022-09-28T05:23:37.980Z,100.00
2022-09-28T05:26:05.756Z,100.00
2022-09-28T05:28:33.995Z,100.00
2022-09-28T05:31:01.854Z,100.00
2022-09-28T05:33:30.944Z,100.00
2022-09-28T05:36:01.368Z,100.00
2022-09-28T05:38:29.192Z,100.00
2022-09-28T05:40:56.718Z,100.00
2022-09-28T05:43:24.308Z,100.00
2022-09-28T05:45:55.608Z,100.00
2022-09-28T05:48:23.345Z,100.00
2022-09-28T05:50:52.864Z,100.00
2022-09-28T05:53:20.584Z,100.00
2022-09-28T05:55:48.215Z,100.00
2022-09-28T05:58:15.645Z,100.00
2022-09-28T06:00:43.127Z,100.00
2022-09-28T06:03:12.112Z,100.00
2022-09-28T06:05:39.891Z,100.00
2022-09-28T06:08:10.279Z,100.00
2022-09-28T06:10:37.719Z,100.00
2022-09-28T06:13:05.265Z,100.00
2022-09-28T06:15:33.582Z,100.00
2022-09-28T06:18:01.778Z,100.00
2022-09-28T06:20:31.095Z,100.00
2022-09-28T06:22:58.514Z,100.00
2022-09-28T06:25:28.382Z,100.00
2022-09-28T06:27:56.491Z,100.00
2022-09-28T06:30:27.181Z,100.00
2022-09-28T06:32:56.174Z,100.00
2022-09-28T06:35:24.456Z,100.00
2022-09-28T06:37:52.232Z,100.00
2022-09-28T06:40:20.312Z,100.00
2022-09-28T06:42:57.136Z,100.00
2022-09-28T06:45:25.513Z,100.00
2022-09-28T06:47:57.503Z,100.00
2022-09-28T06:50:25.169Z,100.00
2022-09-28T06:52:53.622Z,100.00
2022-09-28T06:55:21.063Z,100.00
2022-09-28T06:57:49.159Z,100.00
2022-09-28T07:00:18.160Z,100.00
2022-09-28T07:02:45.843Z,100.00
2022-09-28T07:05:13.742Z,100.00
2022-09-28T07:07:42.839Z,100.00
2022-09-28T07:10:10.828Z,100.00
2022-09-28T07:12:38.343Z,100.00
2022-09-28T07:15:07.214Z,100.00
2022-09-28T07:17:50.186Z,100.00
2022-09-28T07:20:22.164Z,100.00
2022-09-28T07:22:53.643Z,100.00
2022-09-28T07:25:21.059Z,100.00
2022-09-28T07:27:48.828Z,100.00
2022-09-28T07:30:16.929Z,100.00
2022-09-28T07:32:48.358Z,100.00
2022-09-28T07:35:16.071Z,100.00
2022-09-28T07:37:43.432Z,100.00
2022-09-28T07:40:29.070Z,100.00
2022-09-28T07:42:56.540Z,100.00
2022-09-28T07:45:24.734Z,100.00
2022-09-28T07:47:55.489Z,100.00
2022-09-28T07:50:23.255Z,100.00
2022-09-28T07:52:50.684Z,100.00
2022-09-28T07:55:18.171Z,100.00
2022-09-28T07:57:46.952Z,100.00
2022-09-28T08:00:15.608Z,100.00
2022-09-28T08:02:43.035Z,100.00
2022-09-28T08:05:12.367Z,100.00
2022-09-28T08:07:39.864Z,100.00
2022-09-28T08:10:07.575Z,100.00
2022-09-28T08:12:35.837Z,100.00
2022-09-28T08:15:04.318Z,100.00
2022-09-28T08:17:31.726Z,100.00
2022-09-28T08:20:22.263Z,100.00
2022-09-28T08:22:51.028Z,100.00
2022-09-28T08:25:18.608Z,100.00
2022-09-28T08:27:46.167Z,100.00
2022-09-28T08:30:13.704Z,100.00
2022-09-28T08:32:46.738Z,100.00
2022-09-28T08:35:14.585Z,100.00
2022-09-28T08:37:44.923Z,100.00
2022-09-28T08:40:19.472Z,100.00
2022-09-28T08:42:47.446Z,100.00
2022-09-28T08:45:15.843Z,100.00
2022-09-28T08:48:21.661Z,100.00
2022-09-28T08:50:52.154Z,100.00
2022-09-28T08:53:28.781Z,100.00
2022-09-28T08:55:58.890Z,100.00
2022-09-28T08:58:30.312Z,100.00
2022-09-28T09:00:59.082Z,100.00
2022-09-28T09:03:30.530Z,100.00
2022-09-28T09:06:06.754Z,100.00
2022-09-28T09:08:41.221Z,100.00
2022-09-28T09:11:16.403Z,100.00
2022-09-28T09:14:02.414Z,100.00
2022-09-28T09:16:34.035Z,100.00
2022-09-28T09:19:07.165Z,100.00
2022-09-28T09:21:40.525Z,100.00
2022-09-28T09:24:16.065Z,100.00
2022-09-28T09:26:44.966Z,100.00
2022-09-28T09:29:27.290Z,100.00
2022-09-28T09:32:04.333Z,100.00
2022-09-28T09:34:39.353Z,100.00
2022-09-28T09:37:16.999Z,100.00
2022-09-28T09:39:50.614Z,100.00
2022-09-28T09:42:26.924Z,100.00
2022-09-28T09:45:00.642Z,100.00
2022-09-28T09:47:32.184Z,100.00
2022-09-28T09:50:06.792Z,100.00
2022-09-28T09:52:42.329Z,100.00
2022-09-28T09:55:15.725Z,100.00
2022-09-28T09:57:46.658Z,100.00
2022-09-28T10:00:15.168Z,100.00
2022-09-28T10:02:44.041Z,100.00
2022-09-28T10:05:18.813Z,100.00
2022-09-28T10:07:48.673Z,100.00
2022-09-28T10:10:19.053Z,100.00
2022-09-28T10:12:49.716Z,100.00
2022-09-28T10:15:23.802Z,100.00
2022-09-28T10:17:51.424Z,100.00
2022-09-28T10:20:34.005Z,100.00
2022-09-28T10:23:03.240Z,100.00
2022-09-28T10:25:33.287Z,100.00
2022-09-28T10:28:02.535Z,100.00
2022-09-28T10:30:34.013Z,100.00
2022-09-28T10:33:28.047Z,100.00
2022-09-28T10:35:55.939Z,100.00
2022-09-28T10:38:25.818Z,100.00
2022-09-28T10:40:56.551Z,100.00
2022-09-28T10:43:27.209Z,100.00
2022-09-28T10:46:01.831Z,100.00
2022-09-28T10:48:30.995Z,100.00
2022-09-28T10:51:00.095Z,100.00
2022-09-28T10:53:27.646Z,100.00
2022-09-28T10:55:59.646Z,100.00
2022-09-28T10:58:30.086Z,100.00
2022-09-28T11:01:03.165Z,100.00
2022-09-28T11:03:31.575Z,100.00
2022-09-28T11:06:00.637Z,100.00
2022-09-28T11:08:30.487Z,100.00
2022-09-28T11:11:09.316Z,100.00
2022-09-28T11:13:46.258Z,100.00
2022-09-28T11:16:24.538Z,100.00
2022-09-28T11:18:52.023Z,100.00
2022-09-28T11:21:22.504Z,100.00
2022-09-28T11:23:56.740Z,100.00
2022-09-28T11:26:24.373Z,100.00
2022-09-28T11:28:53.589Z,100.00
2022-09-28T11:31:25.961Z,100.00
2022-09-28T11:34:02.024Z,100.00
2022-09-28T11:36:36.107Z,100.00
2022-09-28T11:39:09.142Z,100.00
2022-09-28T11:41:43.009Z,100.00
2022-09-28T11:44:20.380Z,100.00
2022-09-28T11:46:53.082Z,100.00
2022-09-28T11:49:28.300Z,100.00
2022-09-28T11:51:58.241Z,100.00
2022-09-28T11:54:28.837Z,100.00
2022-09-28T11:56:59.927Z,100.00
2022-09-28T11:59:31.669Z,100.00
2022-09-28T12:02:05.124Z,100.00
2022-09-28T12:04:34.907Z,100.00
2022-09-28T12:07:04.997Z,100.00
2022-09-28T12:09:36.300Z,100.00
2022-09-28T12:12:05.806Z,100.00
2022-09-28T12:14:36.837Z,100.00
2022-09-28T12:17:08.448Z,100.00
2022-09-28T12:19:40.494Z,100.00
2022-09-28T12:22:13.461Z,100.00
2022-09-28T12:24:43.376Z,100.00
2022-09-28T12:27:13.753Z,100.00
2022-09-28T12:29:47.334Z,100.00
2022-09-28T12:32:23.669Z,100.00
2022-09-28T12:34:53.153Z,100.00
2022-09-28T12:37:28.724Z,100.00
2022-09-28T12:40:04.155Z,100.00
2022-09-28T12:42:46.121Z,100.00
2022-09-28T12:45:27.663Z,100.00
2022-09-28T12:48:07.749Z,100.00
2022-09-28T12:50:42.120Z,100.00
2022-09-28T12:53:20.850Z,100.00
2022-09-28T12:55:57.149Z,100.00
2022-09-28T12:58:31.671Z,100.00
2022-09-28T13:01:07.681Z,100.00
2022-09-28T13:03:46.711Z,100.00
2022-09-28T13:06:21.991Z,100.00
2022-09-28T13:08:55.257Z,93.84
2022-09-28T13:11:31.787Z,83.29
2022-09-28T13:14:07.959Z,81.60
2022-09-28T13:16:40.259Z,94.23
2022-09-28T13:19:12.993Z,93.03
2022-09-28T13:21:44.834Z,85.97
2022-09-28T13:24:31.580Z,85.02
2022-09-28T13:27:04.383Z,90.15
2022-09-28T13:29:32.419Z,97.40
2022-09-28T13:32:03.205Z,100.00
2022-09-28T13:34:31.871Z,100.00
2022-09-28T13:37:10.148Z,100.00
2022-09-28T13:39:48.700Z,100.00
2022-09-28T13:42:37.009Z,100.00
2022-09-28T13:45:37.812Z,100.00
2022-09-28T13:48:12.634Z,100.00
2022-09-28T13:50:47.698Z,100.00
2022-09-28T13:53:22.073Z,100.00
2022-09-28T13:55:54.690Z,100.00
2022-09-28T13:58:25.460Z,100.00
2022-09-28T14:00:55.135Z,100.00
2022-09-28T14:03:28.305Z,100.00
2022-09-28T14:06:05.948Z,100.00
2022-09-28T14:08:35.882Z,100.00
2022-09-28T14:11:27.777Z,100.00
2022-09-28T14:14:02.398Z,100.00
2022-09-28T14:16:32.060Z,100.00
2022-09-28T14:19:02.702Z,100.00
2022-09-28T14:21:47.840Z,100.00
2022-09-28T14:24:31.942Z,100.00
2022-09-28T14:27:14.953Z,100.00
2022-09-28T14:29:42.571Z,100.00
2022-09-28T14:32:23.104Z,100.00
2022-09-28T14:35:02.226Z,100.00
2022-09-28T14:37:48.745Z,100.00
2022-09-28T14:40:37.776Z,100.00
2022-09-28T14:43:26.959Z,100.00
2022-09-28T14:46:10.830Z,100.00
2022-09-28T14:48:44.170Z,100.00
2022-09-28T14:51:30.638Z,100.00
2022-09-28T14:54:00.894Z,100.00
2022-09-28T14:56:32.581Z,100.00
2022-09-28T14:59:01.156Z,100.00
2022-09-28T15:01:30.157Z,100.00
2022-09-28T15:03:59.987Z,100.00
2022-09-28T15:06:28.919Z,100.00
2022-09-28T15:08:56.317Z,100.00
2022-09-28T15:11:26.160Z,100.00
2022-09-28T15:14:06.019Z,100.00
2022-09-28T15:16:33.655Z,100.00
2022-09-28T15:19:10.995Z,100.00
2022-09-28T15:21:39.355Z,100.00
2022-09-28T15:24:21.653Z,100.00
2022-09-28T15:26:51.106Z,100.00
2022-09-28T15:29:19.316Z,100.00
2022-09-28T15:31:48.988Z,100.00
2022-09-28T15:34:50.565Z,100.00
2022-09-28T15:37:19.990Z,100.00
2022-09-28T15:39:48.212Z,100.00
2022-09-28T15:42:18.338Z,100.00
2022-09-28T15:45:01.189Z,100.00
2022-09-28T15:47:29.759Z,100.00
2022-09-28T15:49:58.932Z,100.00
2022-09-28T15:52:28.785Z,100.00
2022-09-28T15:54:56.389Z,100.00
2022-09-28T15:57:36.694Z,100.00
2022-09-28T16:00:05.868Z,100.00
2022-09-28T16:02:33.360Z,100.00
2022-09-28T16:05:01.617Z,100.00
2022-09-28T16:07:34.942Z,100.00
2022-09-28T16:10:09.188Z,100.00
2022-09-28T16:12:48.514Z,100.00
2022-09-28T16:15:20.357Z,100.00
2022-09-28T16:17:52.245Z,100.00
2022-09-28T16:20:23.095Z,100.00
2022-09-28T16:22:50.728Z,100.00
2022-09-28T16:25:19.656Z,100.00
2022-09-28T16:27:48.409Z,100.00
2022-09-28T16:30:20.101Z,100.00
2022-09-28T16:32:50.433Z,100.00
2022-09-28T16:35:19.941Z,100.00
2022-09-28T16:37:48.649Z,100.00
2022-09-28T16:40:16.048Z,100.00
2022-09-28T16:42:49.077Z,100.00
2022-09-28T16:45:20.300Z,100.00
2022-09-28T16:47:52.263Z,100.00
2022-09-28T16:50:20.276Z,100.00
2022-09-28T16:53:05.214Z,100.00
2022-09-28T16:55:41.134Z,100.00
2022-09-28T16:58:09.293Z,100.00
2022-09-28T17:00:38.117Z,100.00
2022-09-28T17:03:12.459Z,100.00
2022-09-28T17:05:40.157Z,100.00
2022-09-28T17:08:07.669Z,100.00
2022-09-28T17:10:55.696Z,100.00
2022-09-28T17:13:31.136Z,100.00
2022-09-28T17:15:59.964Z,100.00
2022-09-28T17:18:27.693Z,100.00
2022-09-28T17:21:04.165Z,100.00
2022-09-28T17:23:31.702Z,100.00
2022-09-28T17:25:59.225Z,100.00
2022-09-28T17:28:28.226Z,100.00
2022-09-28T17:30:55.829Z,100.00
2022-09-28T17:33:24.688Z,100.00
2022-09-28T17:35:53.442Z,100.00
2022-09-28T17:38:20.883Z,100.00
2022-09-28T17:40:48.482Z,100.00
2022-09-28T17:43:15.940Z,100.00
2022-09-28T17:45:46.324Z,100.00
2022-09-28T17:48:15.637Z,100.00
2022-09-28T17:50:46.536Z,100.00
2022-09-28T17:53:14.693Z,100.00
2022-09-28T17:55:42.998Z,100.00
2022-09-28T17:58:15.733Z,100.00
2022-09-28T18:00:43.694Z,100.00
2022-09-28T18:03:14.250Z,100.00
2022-09-28T18:05:42.119Z,100.00
2022-09-28T18:08:12.045Z,100.00
2022-09-28T18:10:39.855Z,100.00
2022-09-28T18:13:07.499Z,100.00
2022-09-28T18:15:35.251Z,100.00
2022-09-28T18:18:03.058Z,100.00
2022-09-28T18:20:30.702Z,100.00
2022-09-28T18:22:58.616Z,100.00
2022-09-28T18:25:27.556Z,100.00
2022-09-28T18:27:57.286Z,100.00
2022-09-28T18:30:25.067Z,100.00
2022-09-28T18:32:52.525Z,100.00
2022-09-28T18:35:22.925Z,100.00
2022-09-28T18:37:51.250Z,100.00
2022-09-28T18:40:20.091Z,100.00
2022-09-28T18:42:50.175Z,100.00
2022-09-28T18:45:18.617Z,100.00
2022-09-28T18:47:46.897Z,100.00
2022-09-28T18:50:15.390Z,100.00
2022-09-28T18:52:43.811Z,100.00
2022-09-28T18:55:11.801Z,100.00
2022-09-28T18:57:41.189Z,100.00
2022-09-28T19:00:12.087Z,100.00
2022-09-28T19:02:39.656Z,100.00
2022-09-28T19:05:07.830Z,100.00
2022-09-28T19:07:35.787Z,100.00
2022-09-28T19:10:03.169Z,100.00
2022-09-28T19:12:30.588Z,100.00
2022-09-28T19:14:59.520Z,100.00
2022-09-28T19:17:28.413Z,100.00
2022-09-28T19:19:55.808Z,100.00
2022-09-28T19:22:23.208Z,100.00
2022-09-28T19:24:50.644Z,100.00
2022-09-28T19:27:18.155Z,100.00
2022-09-28T19:29:45.512Z,100.00
2022-09-28T19:32:13.101Z,100.00
2022-09-28T19:34:41.876Z,100.00
2022-09-28T19:37:09.367Z,100.00
2022-09-28T19:39:36.883Z,100.00
2022-09-28T19:42:04.332Z,100.00
2022-09-28T19:44:32.328Z,100.00
2022-09-28T19:47:00.573Z,100.00
2022-09-28T19:49:33.148Z,100.00
2022-09-28T19:52:12.688Z,100.00
2022-09-28T19:54:41.085Z,100.00
2022-09-28T19:57:09.004Z,100.00
2022-09-28T19:59:37.083Z,100.00
2022-09-28T20:02:04.832Z,100.00
2022-09-28T20:04:32.278Z,100.00
2022-09-28T20:06:59.695Z,100.00
2022-09-28T20:09:28.457Z,100.00
2022-09-28T20:11:55.989Z,100.00
2022-09-28T20:14:25.835Z,100.00
2022-09-28T20:16:55.696Z,100.00
2022-09-28T20:19:23.270Z,100.00
2022-09-28T20:21:51.097Z,100.00
2022-09-28T20:24:18.795Z,100.00
2022-09-28T20:26:49.429Z,100.00
2022-09-28T20:29:17.393Z,100.00
2022-09-28T20:31:45.779Z,100.00
2022-09-28T20:34:13.662Z,100.00
2022-09-28T20:36:44.581Z,100.00
2022-09-28T20:39:12.833Z,100.00
2022-09-28T20:41:40.997Z,100.00
2022-09-28T20:44:10.179Z,100.00
2022-09-28T20:46:38.073Z,100.00
2022-09-28T20:49:07.041Z,100.00
2022-09-28T20:51:34.406Z,100.00
2022-09-28T20:54:01.894Z,100.00
2022-09-28T20:56:30.504Z,100.00
2022-09-28T20:58:58.328Z,100.00
2022-09-28T21:01:28.541Z,100.00
2022-09-28T21:03:56.875Z,100.00
2022-09-28T21:06:25.146Z,100.00
2022-09-28T21:08:52.704Z,100.00
2022-09-28T21:11:20.711Z,100.00
2022-09-28T21:13:48.578Z,100.00
2022-09-28T21:16:17.953Z,100.00
2022-09-28T21:18:47.015Z,100.00
2022-09-28T21:21:15.010Z,100.00
2022-09-28T21:23:44.719Z,100.00
2022-09-28T21:26:13.150Z,100.00
2022-09-28T21:28:41.019Z,100.00
2022-09-28T21:31:10.992Z,100.00
2022-09-28T21:33:38.899Z,100.00
2022-09-28T21:36:08.531Z,100.00
2022-09-28T21:38:36.078Z,100.00
2022-09-28T21:41:03.565Z,100.00
2022-09-28T21:43:32.162Z,100.00
2022-09-28T21:45:59.768Z,100.00
2022-09-28T21:48:27.984Z,100.00
2022-09-28T21:50:56.721Z,100.00
2022-09-28T21:53:26.582Z,100.00
2022-09-28T21:55:54.763Z,100.00
2022-09-28T21:58:23.084Z,100.00
2022-09-28T22:00:54.593Z,100.00
2022-09-28T22:03:24.587Z,100.00
2022-09-28T22:05:52.608Z,100.00
2022-09-28T22:08:20.046Z,100.00
2022-09-28T22:10:58.112Z,100.00
2022-09-28T22:13:25.491Z,100.00
2022-09-28T22:15:53.540Z,100.00
2022-09-28T22:18:20.995Z,100.00
2022-09-28T22:20:48.448Z,100.00
2022-09-28T22:23:15.878Z,100.00
2022-09-28T22:25:43.258Z,100.00
2022-09-28T22:28:11.966Z,100.00
2022-09-28T22:30:39.450Z,100.00
2022-09-28T22:33:06.825Z,100.00
2022-09-28T22:35:34.236Z,100.00
2022-09-28T22:38:01.616Z,100.00
2022-09-28T22:40:29.124Z,100.00
2022-09-28T22:42:56.597Z,100.00
2022-09-28T22:45:25.367Z,100.00
2022-09-28T22:47:52.767Z,100.00
2022-09-28T22:50:20.177Z,100.00
2022-09-28T22:52:48.392Z,100.00
2022-09-28T22:55:15.801Z,100.00
2022-09-28T22:57:43.288Z,100.00
2022-09-28T23:00:11.088Z,100.00
2022-09-28T23:02:39.881Z,100.00
2022-09-28T23:05:07.902Z,100.00
2022-09-28T23:07:35.285Z,100.00
2022-09-28T23:10:02.651Z,100.00
2022-09-28T23:12:30.436Z,100.00
2022-09-28T23:14:57.811Z,100.00
2022-09-28T23:17:25.221Z,100.00
2022-09-28T23:19:53.959Z,100.00
2022-09-28T23:22:21.363Z,100.00
2022-09-28T23:24:48.775Z,100.00
2022-09-28T23:27:16.181Z,100.00
2022-09-28T23:29:46.793Z,100.00
2022-09-28T23:32:14.515Z,100.00
2022-09-28T23:34:41.943Z,100.00
2022-09-28T23:37:10.873Z,100.00
2022-09-28T23:39:38.258Z,100.00
2022-09-28T23:42:05.667Z,100.00
2022-09-28T23:44:33.122Z,100.00
2022-09-28T23:47:00.574Z,100.00
2022-09-28T23:49:28.530Z,100.00
2022-09-28T23:51:56.085Z,100.00
2022-09-28T23:54:24.783Z,100.00
2022-09-28T23:56:52.239Z,100.00
2022-09-28T23:59:19.686Z,100.00
